Hlavní strana
METAR-TAF:

METAR-TAF

Letiště :

Cervia, Itálie

zeměpisná šířka: 44-13N, zeměpisná délka: 012-18E, výška: 6 m

Aktuální stav počasí

Zpráva byla vytvořena před 31 minutami, v 20:55 UTC
Jižní vítr 4 kt
Teplota 19°C
Vlhkost vzduchu 88%
Tlak 1019 hPa
Viditelnost 10 km a více
Žádná oblačnost pod 1500 m, nevyskytují se cumulonimby.

METAR: LIPC 262055Z 19004KT CAVOK 19/17 Q1019 RMK SKC VIS MIN 9999 WIND THR11 17004KT WIND THR29 /////KT BLU

Čas: 23:26 (21:26 UTC)


TAF: chybějící

Stav a předpovědi počasí z více než 4 000 letišť (zprávy METAR a TAF).

Červené a žluté tečky na mapě představují dostupné meteorologické stanice.

Když kurzor umístíte na tečku, zobrazí se název stanice.

Pak kliknutím zobrazíte stav a předpověď počasí.

Chcete-li změnit mapu, kliknutím na zelené tlačítko se znaménkem +mapu přiblížíte, kliknutím na zelené tlačítko se znaménkem – mapu oddálíte a kliknutím na zelené šipky přejdete na sousední mapy.


METAR-TAF: